Terminal Aerodrome Forecast
Issued by NWS

Home | Current Version | Previous Version | Text Only | Print | Product List | Glossary On
Versions: 1 2 3 4 5 6 7 8 9 10 11 12 13 14
000
FTUS41 KBTV 072336
TAFSLK
TAF
KSLK 072336Z 0800/0824 23009KT P6SM SCT050
     FM080300 25009KT 5SM -SHRA BR OVC025
     FM080600 25008KT 5SM -SHRA BR OVC015
     FM080800 26005KT P6SM OVC015
     FM081300 30007KT P6SM BKN050=

USA.gov is the U.S. government's official web portal to all federal, state and local government web resources and services.